sensor_id;sensor_type;location;lat;lon;timestamp;pressure;altitude;pressure_sealevel;temperature;humidity
18697;BME280;22617;43.690;27.956;2023-02-28T00:04:58;99792.16;;;5.08;86.92
18697;BME280;22617;43.690;27.956;2023-02-28T00:10:05;99806.44;;;4.97;88.03
18697;BME280;22617;43.690;27.956;2023-02-28T00:15:11;99801.75;;;4.86;88.59
18697;BME280;22617;43.690;27.956;2023-02-28T00:20:15;99801.63;;;4.81;88.80
18697;BME280;22617;43.690;27.956;2023-02-28T00:25:21;99835.03;;;4.76;89.22
18697;BME280;22617;43.690;27.956;2023-02-28T00:30:26;99798.50;;;5.19;89.95
18697;BME280;22617;43.690;27.956;2023-02-28T00:35:30;99769.88;;;5.12;88.48
18697;BME280;22617;43.690;27.956;2023-02-28T00:40:33;99800.00;;;5.11;88.31
18697;BME280;22617;43.690;27.956;2023-02-28T00:45:38;99811.41;;;5.18;87.96
18697;BME280;22617;43.690;27.956;2023-02-28T00:50:41;99831.59;;;5.31;87.85
18697;BME280;22617;43.690;27.956;2023-02-28T00:55:45;99848.22;;;5.39;86.86
18697;BME280;22617;43.690;27.956;2023-02-28T01:00:50;99847.53;;;5.45;85.98
18697;BME280;22617;43.690;27.956;2023-02-28T01:05:54;99859.50;;;5.43;86.51
18697;BME280;22617;43.690;27.956;2023-02-28T01:10:58;99829.56;;;5.49;85.93
18697;BME280;22617;43.690;27.956;2023-02-28T01:16:11;99825.34;;;5.53;85.94
18697;BME280;22617;43.690;27.956;2023-02-28T01:21:17;99829.06;;;5.61;86.11
18697;BME280;22617;43.690;27.956;2023-02-28T01:26:22;99846.63;;;5.44;84.66
18697;BME280;22617;43.690;27.956;2023-02-28T01:31:27;99837.19;;;5.45;85.76
18697;BME280;22617;43.690;27.956;2023-02-28T01:36:31;99806.25;;;5.19;86.46
18697;BME280;22617;43.690;27.956;2023-02-28T01:41:35;99805.78;;;5.33;86.86
18697;BME280;22617;43.690;27.956;2023-02-28T01:46:40;99821.69;;;5.16;86.59
18697;BME280;22617;43.690;27.956;2023-02-28T01:51:47;99852.16;;;5.26;86.73
18697;BME280;22617;43.690;27.956;2023-02-28T01:56:55;99851.31;;;5.56;86.69
18697;BME280;22617;43.690;27.956;2023-02-28T02:02:02;99833.38;;;5.34;85.75
18697;BME280;22617;43.690;27.956;2023-02-28T02:07:07;99837.88;;;5.11;85.83
18697;BME280;22617;43.690;27.956;2023-02-28T02:12:21;99818.28;;;5.19;86.73
18697;BME280;22617;43.690;27.956;2023-02-28T02:17:35;99823.31;;;5.14;87.14
18697;BME280;22617;43.690;27.956;2023-02-28T02:28:44;99858.69;;;5.15;87.76
18697;BME280;22617;43.690;27.956;2023-02-28T02:39:40;99854.97;;;5.07;87.79
18697;BME280;22617;43.690;27.956;2023-02-28T02:44:52;99882.28;;;5.26;88.30
18697;BME280;22617;43.690;27.956;2023-02-28T02:50:02;99872.06;;;5.31;88.24
18697;BME280;22617;43.690;27.956;2023-02-28T02:55:12;99869.00;;;5.15;87.19
18697;BME280;22617;43.690;27.956;2023-02-28T03:00:18;99875.44;;;5.01;88.00
18697;BME280;22617;43.690;27.956;2023-02-28T03:05:26;99886.97;;;5.11;88.87
18697;BME280;22617;43.690;27.956;2023-02-28T03:10:37;99896.47;;;5.12;88.60
18697;BME280;22617;43.690;27.956;2023-02-28T03:15:54;99891.16;;;5.07;89.09
18697;BME280;22617;43.690;27.956;2023-02-28T03:21:06;99899.06;;;5.12;89.06
18697;BME280;22617;43.690;27.956;2023-02-28T03:26:21;99909.31;;;5.10;89.42
18697;BME280;22617;43.690;27.956;2023-02-28T03:31:28;99894.03;;;5.16;89.29
18697;BME280;22617;43.690;27.956;2023-02-28T03:36:38;99880.00;;;5.08;89.56
18697;BME280;22617;43.690;27.956;2023-02-28T03:41:50;99874.72;;;5.05;88.38
18697;BME280;22617;43.690;27.956;2023-02-28T03:46:58;99888.97;;;4.94;88.75
18697;BME280;22617;43.690;27.956;2023-02-28T03:52:06;99895.00;;;4.93;89.22
18697;BME280;22617;43.690;27.956;2023-02-28T03:57:20;99907.28;;;5.00;89.01
18697;BME280;22617;43.690;27.956;2023-02-28T04:02:26;99901.19;;;4.98;89.14
18697;BME280;22617;43.690;27.956;2023-02-28T04:07:31;99904.97;;;4.82;88.84
18697;BME280;22617;43.690;27.956;2023-02-28T04:12:35;99898.63;;;5.00;89.52
18697;BME280;22617;43.690;27.956;2023-02-28T04:17:39;99885.41;;;4.89;88.83
18697;BME280;22617;43.690;27.956;2023-02-28T04:22:42;99897.47;;;4.90;88.97
18697;BME280;22617;43.690;27.956;2023-02-28T04:27:48;99895.75;;;4.65;88.78
18697;BME280;22617;43.690;27.956;2023-02-28T04:32:51;99914.63;;;4.63;88.71
18697;BME280;22617;43.690;27.956;2023-02-28T04:37:54;99932.91;;;4.69;89.48
18697;BME280;22617;43.690;27.956;2023-02-28T04:42:59;99936.25;;;4.66;89.23
18697;BME280;22617;43.690;27.956;2023-02-28T04:48:03;99941.81;;;4.53;89.06
18697;BME280;22617;43.690;27.956;2023-02-28T04:53:07;99942.25;;;4.42;89.44
18697;BME280;22617;43.690;27.956;2023-02-28T04:58:12;99950.84;;;4.64;90.06
18697;BME280;22617;43.690;27.956;2023-02-28T05:03:15;99947.97;;;4.57;89.43
18697;BME280;22617;43.690;27.956;2023-02-28T05:08:19;99932.28;;;4.51;89.94
18697;BME280;22617;43.690;27.956;2023-02-28T05:13:24;99921.63;;;4.42;89.30
18697;BME280;22617;43.690;27.956;2023-02-28T05:18:27;99924.72;;;4.57;90.14
18697;BME280;22617;43.690;27.956;2023-02-28T05:23:31;99936.41;;;4.46;89.91
18697;BME280;22617;43.690;27.956;2023-02-28T05:28:36;99930.63;;;4.53;90.44
18697;BME280;22617;43.690;27.956;2023-02-28T05:33:40;99951.91;;;4.71;90.80
18697;BME280;22617;43.690;27.956;2023-02-28T05:38:46;99963.47;;;4.57;89.60
18697;BME280;22617;43.690;27.956;2023-02-28T05:43:51;99976.34;;;4.55;89.88
18697;BME280;22617;43.690;27.956;2023-02-28T05:48:54;99994.91;;;4.45;90.04
18697;BME280;22617;43.690;27.956;2023-02-28T05:54:01;99993.19;;;4.46;90.08
18697;BME280;22617;43.690;27.956;2023-02-28T05:59:06;99990.53;;;4.20;89.84
18697;BME280;22617;43.690;27.956;2023-02-28T06:04:10;99987.47;;;4.30;89.89
18697;BME280;22617;43.690;27.956;2023-02-28T06:09:32;99990.66;;;4.01;88.97
18697;BME280;22617;43.690;27.956;2023-02-28T06:14:37;99990.53;;;3.98;89.00
18697;BME280;22617;43.690;27.956;2023-02-28T06:19:40;99989.00;;;4.03;88.18
18697;BME280;22617;43.690;27.956;2023-02-28T06:24:44;99991.88;;;4.11;87.90
18697;BME280;22617;43.690;27.956;2023-02-28T06:29:49;99990.94;;;4.09;87.12
18697;BME280;22617;43.690;27.956;2023-02-28T06:34:56;99977.31;;;4.13;87.35
18697;BME280;22617;43.690;27.956;2023-02-28T06:40:00;100008.59;;;4.20;87.17
18697;BME280;22617;43.690;27.956;2023-02-28T06:45:06;100014.50;;;4.40;86.87
18697;BME280;22617;43.690;27.956;2023-02-28T06:50:12;100014.00;;;4.26;86.80
18697;BME280;22617;43.690;27.956;2023-02-28T06:55:16;100018.31;;;4.27;87.23
18697;BME280;22617;43.690;27.956;2023-02-28T07:00:21;100018.78;;;4.39;86.38
18697;BME280;22617;43.690;27.956;2023-02-28T07:05:25;100016.91;;;4.35;86.08
18697;BME280;22617;43.690;27.956;2023-02-28T07:10:28;100015.06;;;4.33;85.66
18697;BME280;22617;43.690;27.956;2023-02-28T07:15:34;100002.25;;;4.34;86.21
18697;BME280;22617;43.690;27.956;2023-02-28T07:20:42;100022.72;;;4.54;86.22
18697;BME280;22617;43.690;27.956;2023-02-28T07:25:46;100037.31;;;4.29;85.82
18697;BME280;22617;43.690;27.956;2023-02-28T07:30:51;100034.25;;;4.39;86.45
18697;BME280;22617;43.690;27.956;2023-02-28T07:36:00;100020.41;;;4.85;86.74
18697;BME280;22617;43.690;27.956;2023-02-28T07:41:04;100005.94;;;4.90;85.12
18697;BME280;22617;43.690;27.956;2023-02-28T07:46:10;100006.72;;;4.88;85.36
18697;BME280;22617;43.690;27.956;2023-02-28T07:51:14;100014.84;;;4.98;85.15
18697;BME280;22617;43.690;27.956;2023-02-28T07:56:18;100026.56;;;5.14;84.51
18697;BME280;22617;43.690;27.956;2023-02-28T08:01:23;100038.00;;;5.20;83.86
18697;BME280;22617;43.690;27.956;2023-02-28T08:06:26;100017.13;;;5.14;84.29
18697;BME280;22617;43.690;27.956;2023-02-28T08:11:30;100027.25;;;5.08;84.57
18697;BME280;22617;43.690;27.956;2023-02-28T08:16:35;100022.75;;;5.03;85.00
18697;BME280;22617;43.690;27.956;2023-02-28T08:21:39;100012.91;;;5.16;85.30
18697;BME280;22617;43.690;27.956;2023-02-28T08:26:42;100014.53;;;5.14;84.70
18697;BME280;22617;43.690;27.956;2023-02-28T08:31:48;100014.16;;;5.29;84.73
18697;BME280;22617;43.690;27.956;2023-02-28T08:36:51;100016.81;;;5.31;84.31
18697;BME280;22617;43.690;27.956;2023-02-28T08:41:55;100016.50;;;5.21;84.13
18697;BME280;22617;43.690;27.956;2023-02-28T08:47:10;100014.22;;;5.31;84.23
18697;BME280;22617;43.690;27.956;2023-02-28T08:52:13;100011.00;;;5.38;84.53
18697;BME280;22617;43.690;27.956;2023-02-28T08:57:17;100002.34;;;5.36;84.05
18697;BME280;22617;43.690;27.956;2023-02-28T09:02:21;100000.94;;;5.47;84.99
18697;BME280;22617;43.690;27.956;2023-02-28T09:07:25;100025.56;;;5.61;84.89
18697;BME280;22617;43.690;27.956;2023-02-28T09:12:33;100015.94;;;5.57;84.17
18697;BME280;22617;43.690;27.956;2023-02-28T09:17:38;100007.88;;;5.46;84.47
18697;BME280;22617;43.690;27.956;2023-02-28T09:22:41;100012.69;;;5.37;84.90
18697;BME280;22617;43.690;27.956;2023-02-28T09:27:44;100013.06;;;5.48;84.70
18697;BME280;22617;43.690;27.956;2023-02-28T09:32:49;100027.44;;;5.65;84.68
18697;BME280;22617;43.690;27.956;2023-02-28T09:37:55;100021.56;;;5.70;84.18
18697;BME280;22617;43.690;27.956;2023-02-28T09:43:00;100024.09;;;5.69;83.75
18697;BME280;22617;43.690;27.956;2023-02-28T09:48:09;100016.47;;;5.47;83.64
18697;BME280;22617;43.690;27.956;2023-02-28T09:53:22;100029.47;;;5.75;83.92
18697;BME280;22617;43.690;27.956;2023-02-28T09:58:34;100016.97;;;5.62;83.76
18697;BME280;22617;43.690;27.956;2023-02-28T10:03:44;100009.94;;;5.58;84.08
18697;BME280;22617;43.690;27.956;2023-02-28T10:08:58;100012.69;;;5.36;84.50
18697;BME280;22617;43.690;27.956;2023-02-28T10:14:05;100019.94;;;5.47;85.50
18697;BME280;22617;43.690;27.956;2023-02-28T10:19:17;100020.50;;;5.64;84.75
18697;BME280;22617;43.690;27.956;2023-02-28T10:24:28;100024.88;;;5.66;84.66
18697;BME280;22617;43.690;27.956;2023-02-28T10:29:32;100012.78;;;5.65;84.64
18697;BME280;22617;43.690;27.956;2023-02-28T10:34:38;100016.72;;;5.81;84.98
18697;BME280;22617;43.690;27.956;2023-02-28T10:39:43;100021.59;;;5.72;83.63
18697;BME280;22617;43.690;27.956;2023-02-28T10:44:48;100010.69;;;5.54;84.38
18697;BME280;22617;43.690;27.956;2023-02-28T10:49:53;100014.34;;;5.60;84.32
18697;BME280;22617;43.690;27.956;2023-02-28T10:55:14;100015.75;;;5.51;84.31
18697;BME280;22617;43.690;27.956;2023-02-28T11:00:20;100011.63;;;5.56;84.46
18697;BME280;22617;43.690;27.956;2023-02-28T11:05:28;100012.66;;;5.61;84.27
18697;BME280;22617;43.690;27.956;2023-02-28T11:10:32;100005.03;;;5.65;85.01
18697;BME280;22617;43.690;27.956;2023-02-28T11:15:36;100003.94;;;5.59;84.57
18697;BME280;22617;43.690;27.956;2023-02-28T11:20:42;99992.19;;;5.68;84.76
18697;BME280;22617;43.690;27.956;2023-02-28T11:25:52;99981.66;;;5.89;84.74
18697;BME280;22617;43.690;27.956;2023-02-28T11:31:17;99974.91;;;5.94;84.11
18697;BME280;22617;43.690;27.956;2023-02-28T11:36:24;99966.34;;;5.97;83.62
18697;BME280;22617;43.690;27.956;2023-02-28T11:41:53;99963.78;;;6.27;83.27
18697;BME280;22617;43.690;27.956;2023-02-28T11:47:04;99965.00;;;6.09;82.72
18697;BME280;22617;43.690;27.956;2023-02-28T11:52:19;99955.25;;;5.99;82.76
18697;BME280;22617;43.690;27.956;2023-02-28T11:57:50;99953.16;;;5.88;83.77
18697;BME280;22617;43.690;27.956;2023-02-28T12:03:04;99940.53;;;5.71;84.53
18697;BME280;22617;43.690;27.956;2023-02-28T12:08:29;99948.31;;;5.98;84.65
18697;BME280;22617;43.690;27.956;2023-02-28T12:13:48;99932.91;;;5.75;84.14
18697;BME280;22617;43.690;27.956;2023-02-28T12:19:04;99940.88;;;5.82;84.72
18697;BME280;22617;43.690;27.956;2023-02-28T12:24:30;99933.41;;;5.91;84.71
18697;BME280;22617;43.690;27.956;2023-02-28T12:29:46;99924.34;;;5.77;85.08
18697;BME280;22617;43.690;27.956;2023-02-28T12:34:52;99941.06;;;5.60;85.03
18697;BME280;22617;43.690;27.956;2023-02-28T12:40:02;99941.25;;;5.39;85.21
18697;BME280;22617;43.690;27.956;2023-02-28T12:45:10;99950.53;;;5.59;86.23
18697;BME280;22617;43.690;27.956;2023-02-28T12:50:15;99960.19;;;5.65;85.74
18697;BME280;22617;43.690;27.956;2023-02-28T12:55:25;99964.09;;;5.52;85.15
18697;BME280;22617;43.690;27.956;2023-02-28T13:00:34;99943.84;;;5.39;85.81
18697;BME280;22617;43.690;27.956;2023-02-28T13:05:56;99961.00;;;5.37;86.37
18697;BME280;22617;43.690;27.956;2023-02-28T13:11:07;99960.69;;;5.26;86.85
18697;BME280;22617;43.690;27.956;2023-02-28T13:16:22;99959.53;;;5.18;87.44
18697;BME280;22617;43.690;27.956;2023-02-28T13:21:27;99960.84;;;5.33;87.37
18697;BME280;22617;43.690;27.956;2023-02-28T13:32:29;99942.53;;;5.25;87.03
18697;BME280;22617;43.690;27.956;2023-02-28T13:37:37;99936.69;;;5.31;87.60
18697;BME280;22617;43.690;27.956;2023-02-28T13:42:47;99952.56;;;5.16;87.83
18697;BME280;22617;43.690;27.956;2023-02-28T13:47:56;99961.09;;;5.13;87.59
18697;BME280;22617;43.690;27.956;2023-02-28T13:56:09;99956.09;;;5.18;87.39
18697;BME280;22617;43.690;27.956;2023-02-28T14:07:21;99943.28;;;4.96;87.85
18697;BME280;22617;43.690;27.956;2023-02-28T14:18:56;99943.03;;;4.88;88.12
18697;BME280;22617;43.690;27.956;2023-02-28T14:41:23;99943.97;;;4.65;88.86
18697;BME280;22617;43.690;27.956;2023-02-28T14:46:35;99934.16;;;4.55;89.16
18697;BME280;22617;43.690;27.956;2023-02-28T14:51:48;99945.69;;;4.66;89.30
18697;BME280;22617;43.690;27.956;2023-02-28T14:57:03;99940.44;;;4.63;89.05
18697;BME280;22617;43.690;27.956;2023-02-28T15:02:22;99943.56;;;4.78;88.75
18697;BME280;22617;43.690;27.956;2023-02-28T15:07:32;99958.69;;;4.67;88.17
18697;BME280;22617;43.690;27.956;2023-02-28T15:12:40;99963.25;;;4.74;88.70
18697;BME280;22617;43.690;27.956;2023-02-28T15:17:57;99952.84;;;4.73;88.17
18697;BME280;22617;43.690;27.956;2023-02-28T15:23:58;99954.63;;;4.74;88.21
18697;BME280;22617;43.690;27.956;2023-02-28T15:29:22;99939.72;;;4.67;88.54
18697;BME280;22617;43.690;27.956;2023-02-28T15:34:38;99922.31;;;4.61;87.97
18697;BME280;22617;43.690;27.956;2023-02-28T15:39:48;99939.09;;;4.49;88.45
18697;BME280;22617;43.690;27.956;2023-02-28T15:44:52;99946.25;;;4.57;88.62
18697;BME280;22617;43.690;27.956;2023-02-28T15:49:58;99946.44;;;4.62;88.68
18697;BME280;22617;43.690;27.956;2023-02-28T15:55:12;99946.72;;;4.69;88.50
18697;BME280;22617;43.690;27.956;2023-02-28T16:01:06;99951.56;;;4.60;88.08
18697;BME280;22617;43.690;27.956;2023-02-28T16:06:41;99952.75;;;4.46;88.71
18697;BME280;22617;43.690;27.956;2023-02-28T16:12:04;99973.78;;;4.57;89.47
18697;BME280;22617;43.690;27.956;2023-02-28T16:17:26;99967.53;;;4.50;89.44
18697;BME280;22617;43.690;27.956;2023-02-28T16:22:30;99959.63;;;4.46;89.79
18697;BME280;22617;43.690;27.956;2023-02-28T16:27:37;99955.78;;;4.34;90.15
18697;BME280;22617;43.690;27.956;2023-02-28T16:32:44;99967.56;;;4.28;90.72
18697;BME280;22617;43.690;27.956;2023-02-28T16:37:56;99965.88;;;4.28;90.83
18697;BME280;22617;43.690;27.956;2023-02-28T16:43:05;99961.19;;;4.41;91.58
18697;BME280;22617;43.690;27.956;2023-02-28T16:48:12;99976.75;;;4.44;91.52
18697;BME280;22617;43.690;27.956;2023-02-28T16:53:23;99980.44;;;4.50;91.23
18697;BME280;22617;43.690;27.956;2023-02-28T16:58:29;99984.56;;;4.69;90.95
18697;BME280;22617;43.690;27.956;2023-02-28T17:03:34;99985.31;;;4.66;90.05
18697;BME280;22617;43.690;27.956;2023-02-28T17:08:39;99980.53;;;4.77;89.27
18697;BME280;22617;43.690;27.956;2023-02-28T17:13:45;99965.09;;;4.78;88.65
18697;BME280;22617;43.690;27.956;2023-02-28T17:18:50;99965.84;;;4.76;88.13
18697;BME280;22617;43.690;27.956;2023-02-28T17:23:55;99963.34;;;4.77;87.49
18697;BME280;22617;43.690;27.956;2023-02-28T17:29:02;99960.09;;;4.83;87.23
18697;BME280;22617;43.690;27.956;2023-02-28T17:34:06;99973.59;;;4.76;86.59
18697;BME280;22617;43.690;27.956;2023-02-28T17:39:11;99982.63;;;4.63;86.71
18697;BME280;22617;43.690;27.956;2023-02-28T17:44:18;99982.34;;;4.79;86.51
18697;BME280;22617;43.690;27.956;2023-02-28T17:49:25;99988.06;;;4.71;86.54
18697;BME280;22617;43.690;27.956;2023-02-28T17:54:30;99991.56;;;4.73;86.26
18697;BME280;22617;43.690;27.956;2023-02-28T17:59:36;100002.66;;;4.70;86.15
18697;BME280;22617;43.690;27.956;2023-02-28T18:04:40;99996.19;;;4.81;86.49
18697;BME280;22617;43.690;27.956;2023-02-28T18:09:44;99992.84;;;4.84;86.76
18697;BME280;22617;43.690;27.956;2023-02-28T18:14:50;99996.97;;;4.79;86.17
18697;BME280;22617;43.690;27.956;2023-02-28T18:19:55;100015.78;;;4.76;86.37
18697;BME280;22617;43.690;27.956;2023-02-28T18:24:59;100021.03;;;4.78;86.69
18697;BME280;22617;43.690;27.956;2023-02-28T18:30:09;100023.53;;;4.76;87.27
18697;BME280;22617;43.690;27.956;2023-02-28T18:35:15;100029.69;;;4.80;86.93
18697;BME280;22617;43.690;27.956;2023-02-28T18:40:36;100026.94;;;4.75;87.56
18697;BME280;22617;43.690;27.956;2023-02-28T18:45:43;100019.16;;;4.74;88.02
18697;BME280;22617;43.690;27.956;2023-02-28T18:50:47;100021.78;;;4.75;87.53
18697;BME280;22617;43.690;27.956;2023-02-28T18:55:59;100017.66;;;4.80;87.51
18697;BME280;22617;43.690;27.956;2023-02-28T19:01:14;100010.94;;;4.86;87.80
18697;BME280;22617;43.690;27.956;2023-02-28T19:06:19;99997.88;;;4.81;87.63
18697;BME280;22617;43.690;27.956;2023-02-28T19:11:24;100007.31;;;4.80;88.04
18697;BME280;22617;43.690;27.956;2023-02-28T19:16:57;100019.53;;;4.84;87.57
18697;BME280;22617;43.690;27.956;2023-02-28T19:31:39;100030.22;;;4.95;87.42
18697;BME280;22617;43.690;27.956;2023-02-28T19:44:42;100026.34;;;4.82;87.74
18697;BME280;22617;43.690;27.956;2023-02-28T19:49:47;100012.78;;;4.88;87.82
18697;BME280;22617;43.690;27.956;2023-02-28T19:54:54;100007.72;;;4.91;88.16
18697;BME280;22617;43.690;27.956;2023-02-28T20:00:04;100004.91;;;4.85;87.51
18697;BME280;22617;43.690;27.956;2023-02-28T20:05:13;100001.41;;;4.83;87.87
18697;BME280;22617;43.690;27.956;2023-02-28T20:10:17;100000.03;;;4.93;88.18
18697;BME280;22617;43.690;27.956;2023-02-28T20:15:25;99995.38;;;4.82;87.35
18697;BME280;22617;43.690;27.956;2023-02-28T20:20:30;99993.66;;;4.83;88.18
18697;BME280;22617;43.690;27.956;2023-02-28T20:25:38;99994.63;;;4.87;88.06
18697;BME280;22617;43.690;27.956;2023-02-28T20:30:44;99981.56;;;4.82;88.03
18697;BME280;22617;43.690;27.956;2023-02-28T20:35:57;99970.56;;;4.88;88.13
18697;BME280;22617;43.690;27.956;2023-02-28T20:41:02;99963.56;;;4.83;88.49
18697;BME280;22617;43.690;27.956;2023-02-28T20:46:10;99948.50;;;4.72;88.83
18697;BME280;22617;43.690;27.956;2023-02-28T20:51:22;99942.53;;;4.73;88.78
18697;BME280;22617;43.690;27.956;2023-02-28T20:56:27;99939.00;;;4.71;88.85
18697;BME280;22617;43.690;27.956;2023-02-28T21:01:34;99944.78;;;4.64;89.64
18697;BME280;22617;43.690;27.956;2023-02-28T21:06:40;99945.66;;;4.64;90.00
18697;BME280;22617;43.690;27.956;2023-02-28T21:11:48;99925.00;;;4.64;90.40
18697;BME280;22617;43.690;27.956;2023-02-28T21:16:59;99917.22;;;4.63;90.16
18697;BME280;22617;43.690;27.956;2023-02-28T21:22:04;99908.59;;;4.62;90.89
18697;BME280;22617;43.690;27.956;2023-02-28T21:27:09;99906.00;;;4.62;90.71
18697;BME280;22617;43.690;27.956;2023-02-28T21:32:16;99905.28;;;4.66;91.18
18697;BME280;22617;43.690;27.956;2023-02-28T21:37:22;99891.09;;;4.79;90.49
18697;BME280;22617;43.690;27.956;2023-02-28T21:42:27;99896.47;;;4.60;90.61
18697;BME280;22617;43.690;27.956;2023-02-28T21:47:34;99884.16;;;4.53;90.34
18697;BME280;22617;43.690;27.956;2023-02-28T21:52:40;99872.19;;;4.55;90.47
18697;BME280;22617;43.690;27.956;2023-02-28T21:57:46;99882.81;;;4.64;90.51
18697;BME280;22617;43.690;27.956;2023-02-28T22:02:52;99880.03;;;4.58;90.26
18697;BME280;22617;43.690;27.956;2023-02-28T22:07:57;99874.78;;;4.55;90.64
18697;BME280;22617;43.690;27.956;2023-02-28T22:13:03;99889.09;;;4.47;90.04
18697;BME280;22617;43.690;27.956;2023-02-28T22:18:11;99890.28;;;4.56;90.29
18697;BME280;22617;43.690;27.956;2023-02-28T22:23:17;99899.25;;;4.41;90.60
18697;BME280;22617;43.690;27.956;2023-02-28T22:28:21;99881.72;;;4.57;90.68
18697;BME280;22617;43.690;27.956;2023-02-28T22:33:28;99878.19;;;4.54;89.87
18697;BME280;22617;43.690;27.956;2023-02-28T22:38:35;99878.13;;;4.52;90.14
18697;BME280;22617;43.690;27.956;2023-02-28T22:43:41;99870.44;;;4.54;90.24
18697;BME280;22617;43.690;27.956;2023-02-28T22:48:48;99892.06;;;4.57;89.96
18697;BME280;22617;43.690;27.956;2023-02-28T22:53:56;99885.03;;;4.53;90.47
18697;BME280;22617;43.690;27.956;2023-02-28T22:59:02;99881.50;;;4.51;90.67
18697;BME280;22617;43.690;27.956;2023-02-28T23:04:09;99874.88;;;4.58;90.84
18697;BME280;22617;43.690;27.956;2023-02-28T23:09:16;99887.63;;;4.53;91.08
18697;BME280;22617;43.690;27.956;2023-02-28T23:14:22;99880.97;;;4.60;91.63
18697;BME280;22617;43.690;27.956;2023-02-28T23:19:33;99890.13;;;4.52;90.88
18697;BME280;22617;43.690;27.956;2023-02-28T23:24:39;99887.53;;;4.50;91.72
18697;BME280;22617;43.690;27.956;2023-02-28T23:29:47;99892.00;;;4.56;91.30
18697;BME280;22617;43.690;27.956;2023-02-28T23:34:54;99884.25;;;4.56;91.29
18697;BME280;22617;43.690;27.956;2023-02-28T23:40:02;99882.53;;;4.55;91.70
18697;BME280;22617;43.690;27.956;2023-02-28T23:45:08;99889.38;;;4.54;91.30
18697;BME280;22617;43.690;27.956;2023-02-28T23:50:15;99896.31;;;4.55;91.59
18697;BME280;22617;43.690;27.956;2023-02-28T23:55:20;99885.84;;;4.51;91.55
